createdAt,value
2023-01-29T00:00:45.955Z,59.81
2023-01-29T00:03:54.491Z,60.06
2023-01-29T00:07:00.147Z,59.24
2023-01-29T00:10:10.790Z,59.78
2023-01-29T00:13:16.156Z,59.50
2023-01-29T00:16:23.402Z,59.56
2023-01-29T00:19:28.886Z,58.85
2023-01-29T00:22:35.395Z,58.37
2023-01-29T00:25:43.683Z,58.49
2023-01-29T00:28:50.080Z,57.83
2023-01-29T00:31:55.590Z,58.72
2023-01-29T00:35:02.158Z,58.91
2023-01-29T00:38:07.541Z,58.18
2023-01-29T00:41:35.116Z,58.49
2023-01-29T00:44:56.629Z,58.44
2023-01-29T00:48:03.133Z,58.95
2023-01-29T00:51:09.171Z,58.78
2023-01-29T00:54:15.367Z,58.50
2023-01-29T00:57:23.568Z,59.09
2023-01-29T01:00:30.110Z,59.70
2023-01-29T01:03:35.363Z,59.61
2023-01-29T01:06:42.171Z,61.65
2023-01-29T01:10:03.286Z,60.74
2023-01-29T01:13:12.741Z,61.96
2023-01-29T01:16:21.662Z,61.56
2023-01-29T01:19:28.233Z,61.21
2023-01-29T01:22:33.737Z,62.01
2023-01-29T01:25:39.992Z,62.09
2023-01-29T01:28:48.513Z,61.98
2023-01-29T01:31:57.813Z,62.04
2023-01-29T01:35:03.303Z,61.54
2023-01-29T01:38:09.713Z,61.63
2023-01-29T01:41:17.245Z,60.74
2023-01-29T01:45:01.425Z,60.13
2023-01-29T01:48:17.318Z,60.15
2023-01-29T01:51:29.464Z,60.30
2023-01-29T01:54:36.419Z,60.59
2023-01-29T01:57:49.098Z,60.43
2023-01-29T02:00:58.970Z,59.26
2023-01-29T02:04:28.128Z,59.82
2023-01-29T02:07:49.477Z,59.99
2023-01-29T02:10:57.074Z,60.32
2023-01-29T02:14:03.779Z,59.89
2023-01-29T02:17:17.997Z,60.17
2023-01-29T02:20:32.065Z,60.48
2023-01-29T02:24:27.429Z,59.36
2023-01-29T02:28:14.564Z,59.16
2023-01-29T02:31:35.976Z,58.59
2023-01-29T02:35:19.293Z,58.55
2023-01-29T02:38:39.495Z,58.15
2023-01-29T02:41:59.160Z,58.54
2023-01-29T02:45:17.092Z,58.26
2023-01-29T02:48:38.683Z,57.69
2023-01-29T02:51:54.852Z,57.67
2023-01-29T02:55:13.801Z,57.60
2023-01-29T02:58:34.099Z,57.77
2023-01-29T03:01:51.310Z,57.22
2023-01-29T03:05:07.848Z,56.80
2023-01-29T03:08:23.910Z,56.58
2023-01-29T03:11:40.022Z,55.78
2023-01-29T03:14:59.080Z,55.47
2023-01-29T03:18:14.010Z,55.65
2023-01-29T03:21:50.132Z,55.63
2023-01-29T03:25:20.213Z,56.25
2023-01-29T03:28:47.036Z,54.42
2023-01-29T03:32:07.445Z,54.60
2023-01-29T03:35:36.967Z,53.15
2023-01-29T03:38:47.880Z,52.97
2023-01-29T03:42:15.517Z,53.66
2023-01-29T03:45:37.834Z,52.88
2023-01-29T03:48:58.506Z,53.51
2023-01-29T03:52:18.072Z,53.60
2023-01-29T03:55:41.556Z,52.44
2023-01-29T03:59:00.555Z,53.65
2023-01-29T04:02:38.912Z,52.16
2023-01-29T04:06:09.873Z,51.74
2023-01-29T04:09:30.811Z,52.30
2023-01-29T04:12:48.698Z,52.22
2023-01-29T04:16:03.518Z,52.17
2023-01-29T04:19:59.267Z,52.35
2023-01-29T04:23:09.807Z,51.01
2023-01-29T04:27:07.165Z,51.09
2023-01-29T04:30:36.485Z,50.63
2023-01-29T04:34:01.884Z,50.87
2023-01-29T04:37:25.179Z,51.61
2023-01-29T04:40:50.584Z,50.43
2023-01-29T04:44:08.183Z,50.48
2023-01-29T04:47:33.455Z,51.59
2023-01-29T04:50:50.027Z,51.29
2023-01-29T04:54:11.173Z,51.55
2023-01-29T04:57:27.972Z,51.21
2023-01-29T05:00:41.577Z,50.28
2023-01-29T05:03:57.517Z,50.28
2023-01-29T05:07:10.220Z,50.66
2023-01-29T05:10:21.315Z,50.70
2023-01-29T05:13:31.924Z,51.30
2023-01-29T05:16:46.950Z,51.30
2023-01-29T05:19:55.929Z,50.32
2023-01-29T05:23:03.265Z,50.97
2023-01-29T05:26:09.495Z,51.00
2023-01-29T05:29:12.968Z,50.12
2023-01-29T05:32:19.578Z,50.49
2023-01-29T05:35:28.803Z,51.73
2023-01-29T05:38:34.163Z,50.51
2023-01-29T05:41:40.450Z,51.99
2023-01-29T05:44:45.952Z,51.92
2023-01-29T05:47:52.406Z,51.59
2023-01-29T05:51:04.298Z,51.75
2023-01-29T05:54:10.688Z,52.71
2023-01-29T05:57:17.502Z,51.93
2023-01-29T06:00:24.576Z,53.08
2023-01-29T06:03:30.107Z,51.88
2023-01-29T06:06:39.120Z,52.14
2023-01-29T06:09:44.473Z,51.80
2023-01-29T06:12:50.770Z,53.18
2023-01-29T06:15:56.341Z,52.13
2023-01-29T06:19:02.609Z,53.25
2023-01-29T06:22:10.881Z,52.06
2023-01-29T06:25:17.165Z,51.75
2023-01-29T06:28:22.650Z,52.98
2023-01-29T06:31:38.223Z,51.69
2023-01-29T06:34:44.568Z,52.62
2023-01-29T06:37:53.591Z,52.13
2023-01-29T06:40:59.666Z,52.64
2023-01-29T06:44:06.146Z,52.53
2023-01-29T06:47:11.554Z,51.83
2023-01-29T06:50:18.549Z,53.28
2023-01-29T06:53:26.851Z,53.69
2023-01-29T06:56:33.271Z,53.43
2023-01-29T06:59:38.654Z,54.20
2023-01-29T07:02:44.874Z,55.05
2023-01-29T07:05:55.150Z,55.13
2023-01-29T07:09:04.253Z,54.31
2023-01-29T07:12:11.667Z,55.04
2023-01-29T07:15:20.537Z,57.64
2023-01-29T07:18:25.990Z,59.02
2023-01-29T07:21:32.362Z,60.63
2023-01-29T07:24:40.488Z,60.70
2023-01-29T07:27:46.792Z,60.83
2023-01-29T07:30:52.196Z,61.97
2023-01-29T07:33:58.443Z,62.01
2023-01-29T07:37:03.802Z,63.00
2023-01-29T07:40:15.288Z,62.45
2023-01-29T07:43:21.025Z,62.99
2023-01-29T07:46:27.231Z,63.56
2023-01-29T07:49:32.804Z,62.97
2023-01-29T07:52:38.992Z,63.27
2023-01-29T07:55:48.148Z,63.27
2023-01-29T07:58:54.352Z,62.77
2023-01-29T08:01:59.762Z,62.89
2023-01-29T08:05:06.225Z,61.73
2023-01-29T08:08:12.491Z,62.47
2023-01-29T08:11:21.467Z,62.61
2023-01-29T08:14:27.413Z,62.44
2023-01-29T08:17:33.857Z,62.40
2023-01-29T08:20:39.453Z,62.15
2023-01-29T08:23:45.844Z,62.70
2023-01-29T08:26:54.224Z,62.19
2023-01-29T08:30:00.608Z,61.38
2023-01-29T08:33:07.600Z,61.23
2023-01-29T08:36:13.984Z,61.86
2023-01-29T08:39:19.363Z,61.93
2023-01-29T08:42:28.387Z,61.50
2023-01-29T08:45:34.510Z,61.78
2023-01-29T08:48:40.789Z,60.56
2023-01-29T08:51:46.368Z,59.71
2023-01-29T08:54:52.589Z,60.56
2023-01-29T08:58:00.724Z,59.09
2023-01-29T09:01:12.450Z,59.67
2023-01-29T09:04:17.915Z,60.55
2023-01-29T09:07:24.707Z,59.36
2023-01-29T09:10:31.133Z,60.08
2023-01-29T09:13:40.413Z,58.96
2023-01-29T09:16:45.784Z,57.66
2023-01-29T09:19:53.205Z,57.88
2023-01-29T09:23:00.378Z,58.40
2023-01-29T09:26:07.782Z,58.25
2023-01-29T09:29:19.372Z,53.92
2023-01-29T09:32:52.202Z,55.12
2023-01-29T09:35:51.398Z,53.45
2023-01-29T09:38:57.671Z,55.05
2023-01-29T09:42:15.722Z,54.14
2023-01-29T09:45:29.685Z,54.05
2023-01-29T09:48:40.033Z,53.79
2023-01-29T09:51:54.143Z,53.72
2023-01-29T09:55:09.848Z,53.56
2023-01-29T09:58:28.486Z,52.72
2023-01-29T10:01:59.745Z,53.46
2023-01-29T10:05:32.878Z,52.53
2023-01-29T10:09:32.974Z,51.83
2023-01-29T10:13:02.304Z,52.29
2023-01-29T10:16:35.012Z,52.70
2023-01-29T10:20:13.338Z,53.67
2023-01-29T10:23:28.192Z,53.58
2023-01-29T10:26:38.139Z,53.21
2023-01-29T10:29:47.052Z,52.64
2023-01-29T10:32:54.392Z,51.91
2023-01-29T10:36:11.699Z,51.85
2023-01-29T10:39:21.666Z,51.60
2023-01-29T10:42:40.919Z,51.59
2023-01-29T10:46:06.646Z,52.18
2023-01-29T10:49:35.105Z,51.61
2023-01-29T10:53:08.204Z,50.29
2023-01-29T10:56:42.976Z,50.01
2023-01-29T11:00:13.462Z,50.33
2023-01-29T11:03:28.333Z,50.09
2023-01-29T11:06:38.189Z,49.89
2023-01-29T11:09:56.889Z,50.76
2023-01-29T11:13:05.189Z,50.65
2023-01-29T11:16:15.729Z,51.05
2023-01-29T11:19:41.082Z,51.24
2023-01-29T11:22:58.306Z,50.27
2023-01-29T11:26:09.510Z,51.32
2023-01-29T11:29:42.141Z,50.93
2023-01-29T11:32:54.417Z,51.50
2023-01-29T11:35:59.937Z,51.33
2023-01-29T11:39:24.459Z,50.44
2023-01-29T11:42:35.167Z,51.66
2023-01-29T11:45:43.881Z,52.15
2023-01-29T11:48:59.210Z,52.17
2023-01-29T11:52:17.588Z,51.87
2023-01-29T11:55:28.335Z,51.27
2023-01-29T11:58:39.753Z,51.25
2023-01-29T12:01:45.942Z,52.49
2023-01-29T12:04:54.401Z,52.07
2023-01-29T12:08:04.930Z,51.89
2023-01-29T12:11:16.819Z,51.39
2023-01-29T12:14:34.393Z,50.96
2023-01-29T12:17:49.595Z,51.03
2023-01-29T12:21:02.951Z,50.30
2023-01-29T12:24:32.225Z,49.83
2023-01-29T12:27:51.121Z,49.50
2023-01-29T12:31:25.026Z,50.20
2023-01-29T12:34:46.529Z,49.89
2023-01-29T12:38:05.465Z,48.90
2023-01-29T12:41:28.409Z,48.63
2023-01-29T12:44:44.075Z,48.80
2023-01-29T12:47:58.915Z,49.26
2023-01-29T12:51:13.162Z,49.59
2023-01-29T12:54:26.629Z,49.51
2023-01-29T12:57:49.143Z,48.83
2023-01-29T13:01:04.458Z,48.21
2023-01-29T13:04:28.811Z,49.08
2023-01-29T13:07:46.377Z,48.01
2023-01-29T13:10:57.330Z,48.75
2023-01-29T13:14:15.992Z,48.73
2023-01-29T13:17:36.079Z,49.37
2023-01-29T13:20:46.546Z,48.02
2023-01-29T13:24:04.574Z,48.67
2023-01-29T13:27:10.772Z,49.40
2023-01-29T13:30:32.958Z,48.73
2023-01-29T13:33:38.598Z,48.25
2023-01-29T13:36:55.049Z,49.25
2023-01-29T13:40:07.406Z,48.61
2023-01-29T13:43:26.543Z,48.84
2023-01-29T13:46:35.320Z,49.36
2023-01-29T13:49:48.697Z,49.45
2023-01-29T13:53:04.153Z,49.03
2023-01-29T13:56:50.057Z,49.52
2023-01-29T13:59:59.096Z,48.82
2023-01-29T14:04:05.787Z,48.50
2023-01-29T14:07:53.336Z,48.25
2023-01-29T14:11:39.995Z,48.22
2023-01-29T14:15:08.778Z,48.86
2023-01-29T14:18:25.324Z,48.82
2023-01-29T14:21:35.079Z,49.22
2023-01-29T14:24:46.871Z,49.49
2023-01-29T14:27:56.609Z,49.76
2023-01-29T14:31:03.887Z,50.98
2023-01-29T14:34:24.200Z,50.70
2023-01-29T14:37:39.023Z,50.60
2023-01-29T14:40:51.166Z,50.56
2023-01-29T14:44:59.896Z,51.96
2023-01-29T14:48:41.858Z,52.43
2023-01-29T14:51:49.983Z,52.51
2023-01-29T14:55:02.782Z,50.91
2023-01-29T14:58:17.840Z,51.11
2023-01-29T15:01:37.587Z,51.85
2023-01-29T15:04:53.182Z,51.59
2023-01-29T15:08:09.402Z,50.83
2023-01-29T15:11:36.685Z,50.70
2023-01-29T15:14:55.235Z,51.60
2023-01-29T15:18:16.409Z,50.92
2023-01-29T15:21:23.089Z,51.72
2023-01-29T15:24:29.254Z,51.20
2023-01-29T15:27:35.413Z,51.41
2023-01-29T15:30:43.841Z,51.53
2023-01-29T15:33:58.513Z,50.94
2023-01-29T15:37:05.441Z,52.00
2023-01-29T15:40:20.245Z,52.47
2023-01-29T15:43:29.418Z,51.74
2023-01-29T15:46:40.881Z,51.92
2023-01-29T15:49:50.831Z,51.66
2023-01-29T15:53:01.115Z,52.76
2023-01-29T15:56:14.015Z,51.92
2023-01-29T15:59:25.668Z,52.00
2023-01-29T16:02:41.569Z,51.63
2023-01-29T16:05:50.112Z,52.15
2023-01-29T16:09:00.130Z,51.80
2023-01-29T16:12:07.224Z,52.12
2023-01-29T16:15:31.706Z,51.97
2023-01-29T16:18:54.162Z,52.78
2023-01-29T16:22:12.188Z,52.95
2023-01-29T16:25:20.216Z,52.42
2023-01-29T16:28:27.072Z,52.64
2023-01-29T16:31:35.948Z,53.43
2023-01-29T16:34:48.214Z,52.36
2023-01-29T16:38:06.166Z,52.90
2023-01-29T16:41:31.169Z,53.13
2023-01-29T16:44:40.784Z,52.16
2023-01-29T16:47:47.340Z,52.11
2023-01-29T16:50:55.252Z,52.21
2023-01-29T16:54:11.434Z,52.19
2023-01-29T16:57:25.821Z,52.47
2023-01-29T17:00:34.657Z,52.89
2023-01-29T17:03:44.089Z,52.59
2023-01-29T17:06:59.122Z,53.04
2023-01-29T17:10:10.684Z,53.56
2023-01-29T17:13:28.329Z,52.29
2023-01-29T17:16:36.408Z,52.94
2023-01-29T17:19:42.789Z,53.36
2023-01-29T17:22:48.133Z,52.10
2023-01-29T17:25:57.251Z,52.46
2023-01-29T17:29:02.714Z,52.31
2023-01-29T17:32:09.611Z,52.45
2023-01-29T17:35:17.020Z,53.31
2023-01-29T17:38:26.569Z,53.36
2023-01-29T17:41:36.595Z,52.58
2023-01-29T17:44:43.370Z,52.15
2023-01-29T17:47:48.799Z,52.37
2023-01-29T17:50:58.845Z,51.75
2023-01-29T17:54:04.242Z,52.65
2023-01-29T17:57:22.387Z,51.55
2023-01-29T18:00:28.324Z,51.53
2023-01-29T18:03:34.613Z,51.76
2023-01-29T18:06:41.322Z,52.54
2023-01-29T18:09:47.556Z,51.69
2023-01-29T18:12:55.757Z,52.63
2023-01-29T18:16:02.068Z,53.15
2023-01-29T18:19:19.757Z,52.36
2023-01-29T18:22:26.248Z,52.10
2023-01-29T18:25:39.637Z,52.42
2023-01-29T18:28:48.728Z,52.12
2023-01-29T18:31:54.558Z,52.11
2023-01-29T18:35:01.078Z,53.09
2023-01-29T18:38:07.245Z,52.65
2023-01-29T18:41:14.772Z,53.50
2023-01-29T18:44:23.241Z,53.43
2023-01-29T18:47:29.614Z,53.58
2023-01-29T18:50:35.589Z,53.83
2023-01-29T18:53:41.989Z,54.66
2023-01-29T18:57:13.612Z,55.41
2023-01-29T19:00:18.015Z,55.19
2023-01-29T19:03:23.530Z,56.50
2023-01-29T19:06:29.889Z,55.91
2023-01-29T19:09:36.728Z,57.55
2023-01-29T19:12:43.485Z,57.21
2023-01-29T19:15:51.940Z,57.88
2023-01-29T19:18:59.287Z,58.73
2023-01-29T19:22:04.827Z,58.10
2023-01-29T19:25:12.902Z,58.87
2023-01-29T19:28:18.832Z,58.53
2023-01-29T19:31:28.328Z,59.07
2023-01-29T19:34:34.453Z,57.99
2023-01-29T19:37:40.891Z,59.12
2023-01-29T19:40:46.443Z,58.61
2023-01-29T19:43:54.009Z,59.06
2023-01-29T19:47:02.323Z,57.96
2023-01-29T19:50:10.489Z,58.37
2023-01-29T19:53:15.979Z,58.01
2023-01-29T19:56:22.948Z,57.41
2023-01-29T19:59:28.615Z,57.40
2023-01-29T20:02:37.802Z,58.00
2023-01-29T20:05:43.504Z,57.85
2023-01-29T20:08:49.907Z,57.13
2023-01-29T20:11:55.335Z,56.89
2023-01-29T20:15:01.877Z,57.17
2023-01-29T20:18:12.070Z,56.58
2023-01-29T20:21:22.564Z,57.05
2023-01-29T20:24:29.430Z,57.90
2023-01-29T20:27:35.738Z,57.23
2023-01-29T20:30:43.216Z,57.88
2023-01-29T20:33:52.740Z,57.67
2023-01-29T20:36:58.139Z,57.93
2023-01-29T20:40:04.506Z,57.45
2023-01-29T20:43:09.941Z,58.03
2023-01-29T20:46:16.868Z,57.49
2023-01-29T20:49:25.135Z,58.11
2023-01-29T20:52:31.340Z,58.37
2023-01-29T20:55:36.888Z,57.43
2023-01-29T20:58:43.867Z,58.20
2023-01-29T21:01:49.661Z,58.29
2023-01-29T21:04:58.802Z,57.86
2023-01-29T21:08:04.415Z,58.16
2023-01-29T21:11:15.408Z,57.66
2023-01-29T21:14:20.802Z,58.96
2023-01-29T21:17:28.169Z,58.03
2023-01-29T21:20:36.545Z,57.67
2023-01-29T21:23:43.068Z,58.52
2023-01-29T21:26:48.940Z,57.35
2023-01-29T21:29:55.255Z,57.34
2023-01-29T21:33:00.726Z,57.35
2023-01-29T21:36:13.075Z,57.75
2023-01-29T21:39:24.513Z,56.77
2023-01-29T21:42:46.358Z,57.33
2023-01-29T21:45:59.542Z,57.48
2023-01-29T21:49:06.573Z,56.68
2023-01-29T21:52:17.309Z,57.71
2023-01-29T21:55:24.087Z,57.44
2023-01-29T21:58:30.024Z,57.32
2023-01-29T22:01:38.767Z,57.40
2023-01-29T22:04:45.102Z,57.67
2023-01-29T22:07:54.589Z,56.79
2023-01-29T22:10:59.997Z,57.19
2023-01-29T22:14:06.353Z,57.01
2023-01-29T22:17:12.639Z,56.01
2023-01-29T22:20:19.572Z,56.41
2023-01-29T22:23:28.360Z,55.98
2023-01-29T22:26:34.657Z,56.19
2023-01-29T22:29:40.046Z,56.54
2023-01-29T22:32:46.336Z,56.42
2023-01-29T22:35:57.120Z,55.57
2023-01-29T22:39:06.462Z,56.88
2023-01-29T22:42:12.137Z,56.48
2023-01-29T22:45:18.614Z,55.28
2023-01-29T22:48:27.134Z,55.26
2023-01-29T22:51:33.363Z,56.06
2023-01-29T22:54:43.438Z,55.24
2023-01-29T22:57:53.576Z,54.46
2023-01-29T23:00:58.975Z,55.25
2023-01-29T23:04:05.204Z,54.77
2023-01-29T23:07:11.459Z,55.56
2023-01-29T23:10:20.740Z,54.20
2023-01-29T23:13:26.391Z,55.50
2023-01-29T23:16:32.660Z,55.58
2023-01-29T23:19:38.423Z,55.41
2023-01-29T23:22:44.889Z,55.47
2023-01-29T23:26:09.032Z,55.29
2023-01-29T23:29:15.578Z,54.42
2023-01-29T23:32:23.833Z,55.88
2023-01-29T23:35:30.051Z,55.31
2023-01-29T23:38:35.487Z,54.55
2023-01-29T23:41:44.516Z,54.67
2023-01-29T23:44:49.875Z,54.59
2023-01-29T23:47:56.158Z,54.21
2023-01-29T23:51:01.619Z,54.66
2023-01-29T23:54:08.363Z,54.38
2023-01-29T23:57:16.471Z,54.02
